Terminal Aerodrome Forecast
Issued by NWS Portland, ME

Home | Current Version | Previous Version | Text Only | Print | Product List | Glossary On
Versions: 1 2 3 4 5 6 7 8 9 10 11 12 13 14 15
000
FTUS41 KGYX 012337
TAFPWM
TAF
KPWM 012337Z 0200/0224 19007KT 3SM -SN BKN025 OVC050
      TEMPO 0201/0205 1SM -SN BKN015
     FM020700 28005KT P6SM BKN025
     FM021200 29008KT P6SM FEW025
     FM021500 30014G23KT P6SM SKC=

USA.gov is the U.S. government's official web portal to all federal, state and local government web resources and services.